logo
Search for airport 
image banner adimage banner adimage banner ad
image banner ad

FVCP - Harare/Charles Prince

Located in Harare, Zimbabwe

ICAO - FVCP, IATA -

Data provided by Airmate  

General information

Coordinates: S17°45'9" E30°55'22"
Elevation is 4850 feet MSL.
 
View others Airports in Harare

Operational data

Special qualification required
Current time UTC:
Current local time:
METAR: FVRG 281300Z 19010KT 140V220 9999 SCT040 22/13 Q1022 NOSIG
TAF: TAF FVRG 281000Z 2812/2918 16015KT 9999 SCT035 PROB30 TEMPO 2812/2818 9000 -TSRA FEW030CB BKN040 BECMG 2820/2822 CAVOK TEMPO 2904/2906 SCT008 BECMG 2908/2910 SCT030 FM291400 CAVOK
View NOTAMs / SUP AIP / TFR affecting this airport [VIEW]
Communications frequencies: [VIEW]

Runways:

RWY identifierQFULength (ft)Width (ft)SurfaceLDA (ft)
0654°393756ASP
24234°393756ASP
14129°303559ASP
32309°303559ASP

Airport contact information

Address: Harare Zimbabwe

Satellite view of FVCP